Time;durP1;ratioP1;P1;durP2;ratioP2;P2;SDS_P1;SDS_P2;PMS_P1;PMS_P2;Temp;Humidity;BMP_temperature;BMP_pressure;BME280_temperature;BME280_humidity;BME280_pressure;Samples;Min_cycle;Max_cycle;Signal;HPM_P1;HPM_P2
2023/09/15 00:00:20;;;;;;;;;;;22.80;1.00;;;;;;4955949;29;19958;-64
2023/09/15 00:02:47;;;;;;;;;;;22.80;1.00;;;;;;4955895;29;19976;-65
2023/09/15 00:05:15;;;;;;;;;;;22.80;1.00;;;;;;4955718;29;20338;-64
2023/09/15 00:07:41;;;;;;;;;;;22.80;1.00;;;;;;4945281;29;20297;-65
2023/09/15 00:10:14;;;;;;;;;;;22.80;1.00;;;;;;4936660;29;19934;-64
2023/09/15 00:12:45;;;;;;;;;;;22.80;1.00;;;;;;4936626;29;19933;-64
2023/09/15 00:15:15;;;;;;;;;;;22.80;1.00;;;;;;4939165;23;19953;31
2023/09/15 00:17:42;;;;;;;;;;;22.80;1.00;;;;;;4941436;28;19994;-62
2023/09/15 00:20:16;;;;;;;;;;;22.80;1.00;;;;;;4936219;29;19927;-61
2023/09/15 00:22:48;;;;;;;;;;;22.80;1.00;;;;;;4935939;29;19985;-62
2023/09/15 00:25:19;;;;;;;;;;;22.80;1.00;;;;;;4935886;29;19951;-61
2023/09/15 00:27:47;;;;;;;;;;;22.80;1.00;;;;;;4935521;29;20030;-60
2023/09/15 00:30:15;;;;;;;;;;;22.80;1.00;;;;;;4934649;29;19969;-62
2023/09/15 00:32:43;;;;;;;;;;;22.80;1.00;;;;;;4934446;29;19931;-62
2023/09/15 00:35:09;;;;;;;;;;;22.80;1.00;;;;;;4934551;29;20474;-62
2023/09/15 00:37:36;;;;;;;;;;;22.80;1.00;;;;;;4950077;29;20446;-59
2023/09/15 00:40:06;;;;;;;;;;;22.80;1.00;;;;;;4950361;29;19936;-61
2023/09/15 00:42:34;;;;;;;;;;;22.80;1.00;;;;;;4935555;29;19947;-61
2023/09/15 00:45:04;;;;;;;;;;;22.80;1.00;;;;;;4934176;29;20001;-61
2023/09/15 00:47:31;;;;;;;;;;;22.70;1.00;;;;;;4950043;29;19927;-61
2023/09/15 00:49:58;;;;;;;;;;;22.70;1.00;;;;;;4934267;29;19978;-62
2023/09/15 00:52:27;;;;;;;;;;;22.70;1.00;;;;;;4935547;29;19934;-61
2023/09/15 00:54:54;;;;;;;;;;;22.70;1.00;;;;;;4926469;29;19994;-62
2023/09/15 00:57:21;;;;;;;;;;;22.70;1.00;;;;;;4949324;28;19933;-62
2023/09/15 00:59:49;;;;;;;;;;;22.70;1.00;;;;;;4950090;29;20013;-62
2023/09/15 01:02:16;;;;;;;;;;;22.70;1.00;;;;;;4950048;29;20033;-61
2023/09/15 01:04:43;;;;;;;;;;;22.70;1.00;;;;;;4935320;29;19930;-61
2023/09/15 01:07:10;;;;;;;;;;;22.70;1.00;;;;;;4934968;29;19926;-61
2023/09/15 01:09:39;;;;;;;;;;;22.70;1.00;;;;;;4935162;29;20351;-61
2023/09/15 01:12:09;;;;;;;;;;;22.70;1.00;;;;;;4949807;29;19934;-62
2023/09/15 01:14:36;;;;;;;;;;;22.70;1.00;;;;;;4935282;29;19926;-61
2023/09/15 01:17:08;;;;;;;;;;;22.70;1.00;;;;;;4949331;29;19933;-61
2023/09/15 01:19:54;;;;;;;;;;;22.70;1.00;;;;;;4933703;29;20021;-61
2023/09/15 01:22:37;;;;;;;;;;;22.70;1.00;;;;;;4949747;29;19930;-61
2023/09/15 01:25:10;;;;;;;;;;;22.70;1.00;;;;;;4949770;29;19970;-59
2023/09/15 01:27:50;;;;;;;;;;;22.70;1.00;;;;;;4949218;29;19927;-62
2023/09/15 01:30:17;;;;;;;;;;;22.70;1.00;;;;;;4933599;29;19927;-61
2023/09/15 01:32:45;;;;;;;;;;;22.70;1.00;;;;;;4949546;29;20021;-59
2023/09/15 01:35:12;;;;;;;;;;;22.70;1.00;;;;;;4933475;29;19935;-60
2023/09/15 01:37:39;;;;;;;;;;;22.60;1.00;;;;;;4934249;29;19970;-62
2023/09/15 01:40:07;;;;;;;;;;;22.60;1.00;;;;;;4949585;29;19926;-62
2023/09/15 01:42:34;;;;;;;;;;;22.60;1.00;;;;;;4949560;29;20302;-62
2023/09/15 01:45:01;;;;;;;;;;;22.60;1.00;;;;;;4949757;29;19926;-62
2023/09/15 01:47:28;;;;;;;;;;;22.60;1.00;;;;;;4949047;29;19927;-61
2023/09/15 01:49:56;;;;;;;;;;;22.60;1.00;;;;;;4934956;29;20041;-62
2023/09/15 01:52:23;;;;;;;;;;;22.60;1.00;;;;;;4933650;29;19931;-62
2023/09/15 01:54:53;;;;;;;;;;;22.60;1.00;;;;;;4934780;29;19930;-62
2023/09/15 01:57:20;;;;;;;;;;;22.60;1.00;;;;;;4934383;29;19931;-61
2023/09/15 01:59:47;;;;;;;;;;;22.60;1.00;;;;;;4933424;29;19927;-62
2023/09/15 02:02:13;;;;;;;;;;;22.60;1.00;;;;;;4933455;29;19937;-61
2023/09/15 02:04:40;;;;;;;;;;;22.60;1.00;;;;;;4949420;29;19927;-61
2023/09/15 02:07:07;;;;;;;;;;;22.60;1.00;;;;;;4934474;29;19927;-62
2023/09/15 02:09:34;;;;;;;;;;;22.60;1.00;;;;;;4951194;28;19970;-61
2023/09/15 02:12:01;;;;;;;;;;;22.60;1.00;;;;;;4953135;29;19927;-61
2023/09/15 02:14:28;;;;;;;;;;;22.60;1.00;;;;;;4952981;29;19927;-60
2023/09/15 02:16:55;;;;;;;;;;;22.60;1.00;;;;;;4952607;29;19931;-62
2023/09/15 02:19:24;;;;;;;;;;;22.60;1.00;;;;;;4953055;29;19995;-62
2023/09/15 02:21:51;;;;;;;;;;;22.50;1.00;;;;;;4938172;29;20012;-62
2023/09/15 02:24:18;;;;;;;;;;;22.50;1.00;;;;;;4952875;29;19926;-62
2023/09/15 02:26:44;;;;;;;;;;;22.50;1.00;;;;;;4952497;29;19962;-62
2023/09/15 02:29:11;;;;;;;;;;;22.50;1.00;;;;;;4938082;29;19927;-61
2023/09/15 02:31:40;;;;;;;;;;;22.50;1.00;;;;;;4938160;29;19927;-61
2023/09/15 02:34:07;;;;;;;;;;;22.50;1.00;;;;;;4938173;29;20018;-62
2023/09/15 02:36:33;;;;;;;;;;;22.50;1.00;;;;;;4952059;29;20373;-62
2023/09/15 02:39:00;;;;;;;;;;;22.50;1.00;;;;;;4952702;29;19974;-62
2023/09/15 02:41:27;;;;;;;;;;;22.50;1.00;;;;;;4952746;29;20290;-61
2023/09/15 02:43:55;;;;;;;;;;;22.50;1.00;;;;;;4954752;29;20351;-62
2023/09/15 02:46:21;;;;;;;;;;;22.50;1.00;;;;;;4940103;29;19934;-62
2023/09/15 02:48:48;;;;;;;;;;;22.50;1.00;;;;;;4937635;29;19926;-61
2023/09/15 02:51:16;;;;;;;;;;;22.40;1.00;;;;;;4952358;29;19930;-61
2023/09/15 02:53:42;;;;;;;;;;;22.40;1.00;;;;;;4952356;29;19966;-61
2023/09/15 02:56:09;;;;;;;;;;;22.40;1.00;;;;;;4952124;29;19933;-61
2023/09/15 02:58:37;;;;;;;;;;;22.40;1.00;;;;;;4931625;29;20413;-61
2023/09/15 03:01:13;;;;;;;;;;;22.40;1.00;;;;;;4922000;29;19927;-59
2023/09/15 03:03:48;;;;;;;;;;;22.40;1.00;;;;;;4936197;29;19926;-60
2023/09/15 03:06:15;;;;;;;;;;;22.40;1.00;;;;;;4936125;29;20201;-61
2023/09/15 03:08:42;;;;;;;;;;;22.40;1.00;;;;;;4951872;29;19926;-61
2023/09/15 03:11:14;;;;;;;;;;;22.40;1.00;;;;;;4936197;29;20264;-61
2023/09/15 03:13:41;;;;;;;;;;;22.40;1.00;;;;;;4936036;29;20011;-61
2023/09/15 03:16:08;;;;;;;;;;;22.40;1.00;;;;;;4951421;29;19969;-60
2023/09/15 03:18:36;;;;;;;;;;;22.40;1.00;;;;;;4951778;29;19938;-61
2023/09/15 03:21:04;;;;;;;;;;;22.40;1.00;;;;;;4951477;28;19927;-60
2023/09/15 03:23:31;;;;;;;;;;;22.40;1.00;;;;;;4951773;29;19933;-60
2023/09/15 03:25:58;;;;;;;;;;;22.40;1.00;;;;;;4951565;29;19927;-61
2023/09/15 03:28:26;;;;;;;;;;;22.40;1.00;;;;;;4951640;29;19970;-59
2023/09/15 03:30:53;;;;;;;;;;;22.40;1.00;;;;;;4951629;29;20318;-61
2023/09/15 03:33:20;;;;;;;;;;;22.30;1.00;;;;;;4951729;29;19974;-61
2023/09/15 03:35:47;;;;;;;;;;;22.40;1.00;;;;;;4936629;29;20387;-61
2023/09/15 03:38:14;;;;;;;;;;;22.30;1.00;;;;;;4936556;29;19927;-59
2023/09/15 03:40:41;;;;;;;;;;;22.30;1.00;;;;;;4936894;29;19927;-62
2023/09/15 03:43:08;;;;;;;;;;;22.30;1.00;;;;;;4951497;29;19926;-59
2023/09/15 03:45:34;;;;;;;;;;;22.30;1.00;;;;;;4951589;29;19927;-61
2023/09/15 03:48:02;;;;;;;;;;;22.30;1.00;;;;;;4951005;29;19969;-62
2023/09/15 03:50:30;;;;;;;;;;;22.30;1.00;;;;;;4951098;29;19930;-61
2023/09/15 03:52:57;;;;;;;;;;;22.30;1.00;;;;;;4935349;29;19974;-60
2023/09/15 03:55:25;;;;;;;;;;;22.30;1.00;;;;;;4951318;29;19934;-61
2023/09/15 03:57:52;;;;;;;;;;;22.30;1.00;;;;;;4950850;29;19926;-60
2023/09/15 04:00:19;;;;;;;;;;;22.30;1.00;;;;;;4951280;29;19931;-61
2023/09/15 04:02:46;;;;;;;;;;;22.30;1.00;;;;;;4936007;29;20355;-60
2023/09/15 04:05:13;;;;;;;;;;;22.30;1.00;;;;;;4951034;29;19977;-57
2023/09/15 04:07:40;;;;;;;;;;;22.30;1.00;;;;;;4936182;29;20025;-61
2023/09/15 04:10:07;;;;;;;;;;;22.30;1.00;;;;;;4935019;29;19977;-61
2023/09/15 04:12:35;;;;;;;;;;;22.30;1.00;;;;;;4936295;29;19927;-61
2023/09/15 04:15:04;;;;;;;;;;;22.30;1.00;;;;;;4950901;29;19931;-60
2023/09/15 04:17:31;;;;;;;;;;;22.20;1.00;;;;;;4934246;29;20013;-61
2023/09/15 04:19:58;;;;;;;;;;;22.30;1.00;;;;;;4950728;29;19933;-60
2023/09/15 04:22:26;;;;;;;;;;;22.20;1.00;;;;;;4935027;29;19934;-62
2023/09/15 04:24:53;;;;;;;;;;;22.20;1.00;;;;;;4950707;29;19930;-61
2023/09/15 04:27:20;;;;;;;;;;;22.20;1.00;;;;;;4950340;29;19931;-59
2023/09/15 04:29:53;;;;;;;;;;;22.20;1.00;;;;;;4935848;29;20466;-61
2023/09/15 04:32:22;;;;;;;;;;;22.20;1.00;;;;;;4950126;28;19927;-61
2023/09/15 04:34:49;;;;;;;;;;;22.20;1.00;;;;;;4950415;29;19989;-61
2023/09/15 04:37:16;;;;;;;;;;;22.20;1.00;;;;;;4934215;29;19989;-58
2023/09/15 04:39:43;;;;;;;;;;;22.20;1.00;;;;;;4935765;29;19974;-60
2023/09/15 04:42:13;;;;;;;;;;;22.20;1.00;;;;;;4950412;29;19978;-60
2023/09/15 04:44:39;;;;;;;;;;;22.20;1.00;;;;;;4950234;29;20453;-60
2023/09/15 04:47:06;;;;;;;;;;;22.20;1.00;;;;;;4935424;29;20029;-60
2023/09/15 04:49:35;;;;;;;;;;;22.20;1.00;;;;;;4950259;29;19926;-61
2023/09/15 04:52:03;;;;;;;;;;;22.20;1.00;;;;;;4950394;29;19931;-59
2023/09/15 04:54:29;;;;;;;;;;;22.20;1.00;;;;;;4950282;29;19926;-61
2023/09/15 04:56:56;;;;;;;;;;;22.20;1.00;;;;;;4949589;29;19931;-62
2023/09/15 04:59:25;;;;;;;;;;;22.10;1.00;;;;;;4950450;29;20363;-61
2023/09/15 05:01:52;;;;;;;;;;;22.10;1.00;;;;;;4950076;29;20387;-59
2023/09/15 05:04:19;;;;;;;;;;;22.10;1.00;;;;;;4950045;29;19998;-61
2023/09/15 05:06:46;;;;;;;;;;;22.10;1.00;;;;;;4934012;29;20299;-60
2023/09/15 05:09:18;;;;;;;;;;;22.10;1.00;;;;;;4934425;29;19934;-61
2023/09/15 05:11:45;;;;;;;;;;;22.10;1.00;;;;;;4948371;29;19931;-61
2023/09/15 05:14:12;;;;;;;;;;;22.10;1.00;;;;;;4949285;29;19927;-60
2023/09/15 05:16:39;;;;;;;;;;;22.10;1.00;;;;;;4949250;29;19927;-60
2023/09/15 05:19:06;;;;;;;;;;;22.10;1.00;;;;;;4937241;29;19934;-61
2023/09/15 05:21:33;;;;;;;;;;;22.10;1.00;;;;;;4917701;29;20383;-61
2023/09/15 05:23:59;;;;;;;;;;;22.10;1.00;;;;;;4918830;29;19927;-61
2023/09/15 05:26:26;;;;;;;;;;;22.00;1.00;;;;;;4918481;29;19934;-60
2023/09/15 05:28:54;;;;;;;;;;;22.00;1.00;;;;;;4934648;29;19927;-60
2023/09/15 05:31:25;;;;;;;;;;;22.00;1.00;;;;;;4950014;29;19927;-61
2023/09/15 05:33:54;;;;;;;;;;;21.90;1.00;;;;;;4933942;29;19927;-61
2023/09/15 05:36:21;;;;;;;;;;;21.90;1.00;;;;;;4935256;29;20511;-60
2023/09/15 05:38:48;;;;;;;;;;;21.90;1.00;;;;;;4945571;29;20029;-60
2023/09/15 05:41:16;;;;;;;;;;;21.90;1.00;;;;;;4949840;29;19934;-62
2023/09/15 05:43:44;;;;;;;;;;;21.80;1.00;;;;;;4935777;29;19930;-62
2023/09/15 05:46:10;;;;;;;;;;;21.80;1.00;;;;;;4938906;29;19938;-61
2023/09/15 05:48:37;;;;;;;;;;;21.80;1.00;;;;;;4938524;29;20076;-60
2023/09/15 05:51:06;;;;;;;;;;;21.90;1.00;;;;;;4938812;29;20003;-61
2023/09/15 05:53:33;;;;;;;;;;;21.80;1.00;;;;;;4938807;29;19982;-61
2023/09/15 05:56:00;;;;;;;;;;;21.80;1.00;;;;;;4938468;29;20017;-61
2023/09/15 05:58:27;;;;;;;;;;;21.80;1.00;;;;;;4938600;29;20302;-61
2023/09/15 06:00:55;;;;;;;;;;;21.80;1.00;;;;;;4938886;29;20393;-61
2023/09/15 06:03:23;;;;;;;;;;;21.80;1.00;;;;;;4938622;29;19927;-61
2023/09/15 06:05:50;;;;;;;;;;;21.80;1.00;;;;;;4938409;29;19930;-60
2023/09/15 06:08:18;;;;;;;;;;;21.80;1.00;;;;;;4937602;29;20017;-61
2023/09/15 06:10:45;;;;;;;;;;;21.80;1.00;;;;;;4936473;29;19926;-61
2023/09/15 06:13:12;;;;;;;;;;;21.90;1.00;;;;;;4938059;29;20407;-60
2023/09/15 06:15:39;;;;;;;;;;;21.90;1.00;;;;;;4937597;29;19926;-59
2023/09/15 06:18:06;;;;;;;;;;;21.90;1.00;;;;;;4936777;29;19934;-60
2023/09/15 06:20:33;;;;;;;;;;;21.90;1.00;;;;;;4938360;29;19927;-58
2023/09/15 06:23:00;;;;;;;;;;;21.90;1.00;;;;;;4937142;29;20479;-61
2023/09/15 06:25:27;;;;;;;;;;;21.90;1.00;;;;;;4938498;29;20373;-60
2023/09/15 06:27:54;;;;;;;;;;;21.90;1.00;;;;;;4937729;29;20018;-60
2023/09/15 06:30:33;;;;;;;;;;;21.90;1.00;;;;;;4938256;29;19927;-61
2023/09/15 06:33:00;;;;;;;;;;;21.90;1.00;;;;;;4937878;29;20342;-60
2023/09/15 06:35:26;;;;;;;;;;;21.90;1.00;;;;;;4938136;29;19927;-59
2023/09/15 06:37:53;;;;;;;;;;;21.90;1.00;;;;;;4937499;29;20437;-59
2023/09/15 06:40:20;;;;;;;;;;;21.90;1.00;;;;;;4937748;29;20398;-58
2023/09/15 06:42:47;;;;;;;;;;;22.00;1.00;;;;;;4937694;29;19927;-62
2023/09/15 06:45:13;;;;;;;;;;;22.00;1.00;;;;;;4937775;29;20495;-59
2023/09/15 06:47:40;;;;;;;;;;;22.00;1.00;;;;;;4937481;29;19930;-59
2023/09/15 06:50:07;;;;;;;;;;;22.00;1.00;;;;;;4937697;29;19933;-59
2023/09/15 06:52:34;;;;;;;;;;;22.00;1.00;;;;;;4937823;29;19934;-60
2023/09/15 06:55:01;;;;;;;;;;;22.00;1.00;;;;;;4936932;29;19927;-59
2023/09/15 06:57:28;;;;;;;;;;;22.00;1.00;;;;;;4937226;29;19927;-59
2023/09/15 06:59:54;;;;;;;;;;;22.00;1.00;;;;;;4937618;29;19930;-60
2023/09/15 07:02:21;;;;;;;;;;;22.00;1.00;;;;;;4937340;29;19990;-59
2023/09/15 07:04:48;;;;;;;;;;;22.00;1.00;;;;;;4937740;29;19973;-61
2023/09/15 07:07:15;;;;;;;;;;;22.00;1.00;;;;;;4937163;29;19930;-60
2023/09/15 07:09:42;;;;;;;;;;;22.00;1.00;;;;;;4937526;29;19970;-60
2023/09/15 07:12:08;;;;;;;;;;;22.00;1.00;;;;;;4937857;29;19962;-61
2023/09/15 07:14:35;;;;;;;;;;;22.00;1.00;;;;;;4937365;29;19927;-61
2023/09/15 07:17:03;;;;;;;;;;;22.00;1.00;;;;;;4936754;29;19934;-61
2023/09/15 07:19:30;;;;;;;;;;;22.00;1.00;;;;;;4937136;29;19938;-60
2023/09/15 07:21:57;;;;;;;;;;;22.00;1.00;;;;;;4937248;29;20458;-60
2023/09/15 07:24:24;;;;;;;;;;;22.00;1.00;;;;;;4937077;29;19981;-61
2023/09/15 07:26:51;;;;;;;;;;;22.00;1.00;;;;;;4936721;29;19974;-61
2023/09/15 07:29:17;;;;;;;;;;;22.00;1.00;;;;;;4936862;29;19931;-59
2023/09/15 07:31:44;;;;;;;;;;;22.00;1.00;;;;;;4937038;29;19933;-61
2023/09/15 07:34:12;;;;;;;;;;;22.00;1.00;;;;;;4936890;29;19927;-59
2023/09/15 07:36:39;;;;;;;;;;;22.00;1.00;;;;;;4936633;29;19927;-61
2023/09/15 07:39:06;;;;;;;;;;;22.00;1.00;;;;;;4936713;29;20288;-61
2023/09/15 07:41:34;;;;;;;;;;;22.00;1.00;;;;;;4936821;29;19931;-59
2023/09/15 07:44:01;;;;;;;;;;;22.00;1.00;;;;;;4936755;29;19927;-61
2023/09/15 07:46:28;;;;;;;;;;;22.00;1.00;;;;;;4936563;29;19927;-60
2023/09/15 07:48:55;;;;;;;;;;;22.00;1.00;;;;;;4936786;29;19930;-61
2023/09/15 07:51:23;;;;;;;;;;;22.00;1.00;;;;;;4936619;29;19926;-60
2023/09/15 07:53:51;;;;;;;;;;;22.00;1.00;;;;;;4936718;29;20306;-59
2023/09/15 07:56:18;;;;;;;;;;;22.00;1.00;;;;;;4936406;29;20274;-60
2023/09/15 07:58:45;;;;;;;;;;;22.00;1.00;;;;;;4936373;29;19951;-61
2023/09/15 08:01:12;;;;;;;;;;;22.00;1.00;;;;;;4936485;29;19927;-59
2023/09/15 08:03:39;;;;;;;;;;;22.00;1.00;;;;;;4936375;29;19958;-60
2023/09/15 08:06:06;;;;;;;;;;;22.00;1.00;;;;;;4935918;29;20450;-62
2023/09/15 08:08:34;;;;;;;;;;;22.10;1.00;;;;;;4935773;29;20215;-61
2023/09/15 08:11:01;;;;;;;;;;;22.10;1.00;;;;;;4936470;29;19934;-61
2023/09/15 08:13:27;;;;;;;;;;;22.10;1.00;;;;;;4936383;29;19933;-61
2023/09/15 08:15:54;;;;;;;;;;;22.10;1.00;;;;;;4936375;29;20425;-61
2023/09/15 08:18:22;;;;;;;;;;;22.10;1.00;;;;;;4936308;29;19958;-60
2023/09/15 08:20:48;;;;;;;;;;;22.10;1.00;;;;;;4936145;29;19927;-62
2023/09/15 08:23:15;;;;;;;;;;;22.10;1.00;;;;;;4935923;29;19933;-61
2023/09/15 08:25:42;;;;;;;;;;;22.10;1.00;;;;;;4936037;29;19927;-61
2023/09/15 08:28:09;;;;;;;;;;;22.10;1.00;;;;;;4935816;29;19926;-60
2023/09/15 08:30:36;;;;;;;;;;;22.10;1.00;;;;;;4935935;29;19934;-61
2023/09/15 08:33:05;;;;;;;;;;;22.10;1.00;;;;;;4935811;29;19930;-61
2023/09/15 08:35:32;;;;;;;;;;;22.10;1.00;;;;;;4935830;29;19926;-60
2023/09/15 08:37:59;;;;;;;;;;;22.10;1.00;;;;;;4935302;29;19927;-62
2023/09/15 08:40:37;;;;;;;;;;;22.10;1.00;;;;;;4935756;29;19926;-61
2023/09/15 08:43:07;;;;;;;;;;;22.10;1.00;;;;;;4935972;29;19934;-61
2023/09/15 08:45:34;;;;;;;;;;;22.10;1.00;;;;;;4936189;29;19934;-61
2023/09/15 08:48:04;;;;;;;;;;;22.20;1.00;;;;;;4936149;29;19930;-61
2023/09/15 08:50:31;;;;;;;;;;;22.20;1.00;;;;;;4935976;29;20540;-61
2023/09/15 08:52:59;;;;;;;;;;;22.20;1.00;;;;;;4935636;29;19948;-62
2023/09/15 08:55:27;;;;;;;;;;;22.20;1.00;;;;;;4935491;29;20314;-61
2023/09/15 08:57:54;;;;;;;;;;;22.20;1.00;;;;;;4935120;29;19927;-60
2023/09/15 09:00:22;;;;;;;;;;;22.20;1.00;;;;;;4935370;29;19926;-60
2023/09/15 09:02:51;;;;;;;;;;;22.30;1.00;;;;;;4935347;29;19930;-60
2023/09/15 09:05:18;;;;;;;;;;;22.30;1.00;;;;;;4935196;29;19926;-61
2023/09/15 09:07:45;;;;;;;;;;;22.30;1.00;;;;;;4934897;29;20343;-60
2023/09/15 09:10:12;;;;;;;;;;;22.30;1.00;;;;;;4930653;29;19927;-60
2023/09/15 09:12:39;;;;;;;;;;;22.30;1.00;;;;;;4935127;29;19935;-60
2023/09/15 09:15:09;;;;;;;;;;;22.30;1.00;;;;;;4935098;29;20318;-61
2023/09/15 09:17:38;;;;;;;;;;;22.40;1.00;;;;;;4934107;29;19931;-61
2023/09/15 09:20:06;;;;;;;;;;;22.40;1.00;;;;;;4934999;29;19931;-61
2023/09/15 09:22:34;;;;;;;;;;;22.40;1.00;;;;;;4935133;29;19998;-61
2023/09/15 09:25:01;;;;;;;;;;;22.40;1.00;;;;;;4935130;29;19934;-59
2023/09/15 09:27:32;;;;;;;;;;;22.40;1.00;;;;;;4934500;29;20383;-61
2023/09/15 09:29:59;;;;;;;;;;;22.50;1.00;;;;;;4934978;29;19926;-61
2023/09/15 09:32:26;;;;;;;;;;;22.50;1.00;;;;;;4935132;29;19926;-60
2023/09/15 09:34:53;;;;;;;;;;;22.50;1.00;;;;;;4935055;29;19958;-61
2023/09/15 09:37:25;;;;;;;;;;;22.60;1.00;;;;;;4934529;29;19933;-60
2023/09/15 09:39:53;;;;;;;;;;;22.60;1.00;;;;;;4935071;29;19940;-60
2023/09/15 09:42:24;;;;;;;;;;;22.60;1.00;;;;;;4935328;29;19927;-61
2023/09/15 09:44:51;;;;;;;;;;;22.60;1.00;;;;;;4934895;29;19965;-61
2023/09/15 09:47:20;;;;;;;;;;;22.60;1.00;;;;;;4934421;29;19958;-60
2023/09/15 09:49:46;;;;;;;;;;;22.60;1.00;;;;;;4934856;29;19934;-61
2023/09/15 09:52:13;;;;;;;;;;;22.70;1.00;;;;;;4935084;29;19934;-61
2023/09/15 09:54:40;;;;;;;;;;;22.70;1.00;;;;;;4934938;29;19926;-61
2023/09/15 09:57:07;;;;;;;;;;;22.70;1.00;;;;;;4933110;29;20029;-61
2023/09/15 09:59:37;;;;;;;;;;;22.70;1.00;;;;;;4934966;29;20298;-61
2023/09/15 10:02:04;;;;;;;;;;;22.70;1.00;;;;;;4935237;29;20267;-61
2023/09/15 10:04:31;;;;;;;;;;;22.80;1.00;;;;;;4934941;29;19927;-61
2023/09/15 10:06:58;;;;;;;;;;;22.80;1.00;;;;;;4934546;29;20184;-61
2023/09/15 10:09:25;;;;;;;;;;;22.80;1.00;;;;;;4934579;29;20022;-61
2023/09/15 10:11:55;;;;;;;;;;;22.80;1.00;;;;;;4934735;29;19927;-60
2023/09/15 10:14:23;;;;;;;;;;;22.80;1.00;;;;;;4934694;29;19934;-59
2023/09/15 10:16:51;;;;;;;;;;;22.80;1.00;;;;;;4934219;29;19931;-61
2023/09/15 10:19:18;;;;;;;;;;;22.90;1.00;;;;;;4934511;29;20022;-61
2023/09/15 10:21:45;;;;;;;;;;;22.90;1.00;;;;;;4934720;29;19927;-61
2023/09/15 10:24:12;;;;;;;;;;;22.90;1.00;;;;;;4934761;29;19934;-59
2023/09/15 10:26:41;;;;;;;;;;;22.90;1.00;;;;;;4934339;29;20255;-60
2023/09/15 10:29:11;;;;;;;;;;;22.90;1.00;;;;;;4934608;29;20018;-60
2023/09/15 10:31:44;;;;;;;;;;;22.90;1.00;;;;;;4937599;29;20296;-61
2023/09/15 10:34:11;;;;;;;;;;;22.90;1.00;;;;;;4938070;29;19926;-60
2023/09/15 10:36:39;;;;;;;;;;;23.00;1.00;;;;;;4937613;29;20009;-59
2023/09/15 10:39:17;;;;;;;;;;;23.00;1.00;;;;;;4938294;29;19968;-60
2023/09/15 10:41:44;;;;;;;;;;;23.00;1.00;;;;;;4937891;29;19986;-61
2023/09/15 10:44:11;;;;;;;;;;;23.00;1.00;;;;;;4938007;29;20367;-60
2023/09/15 10:46:39;;;;;;;;;;;23.00;1.00;;;;;;4937971;29;20287;-61
2023/09/15 10:49:14;;;;;;;;;;;23.00;1.00;;;;;;4937686;29;20025;-61
2023/09/15 10:51:50;;;;;;;;;;;23.00;1.00;;;;;;4937830;29;19935;-61
2023/09/15 10:54:17;;;;;;;;;;;23.00;1.00;;;;;;4937707;29;20458;-61
2023/09/15 10:56:44;;;;;;;;;;;23.00;1.00;;;;;;4937234;29;19943;-60
2023/09/15 10:59:11;;;;;;;;;;;23.00;1.00;;;;;;4937327;29;19970;-61
2023/09/15 11:01:43;;;;;;;;;;;23.00;1.00;;;;;;4937318;29;19927;-61
2023/09/15 11:04:17;;;;;;;;;;;23.00;1.00;;;;;;4936232;29;19926;-61
2023/09/15 11:06:46;;;;;;;;;;;23.00;1.00;;;;;;4937334;29;19958;-61
2023/09/15 11:09:13;;;;;;;;;;;23.10;1.00;;;;;;4937410;29;19933;-61
2023/09/15 11:11:47;;;;;;;;;;;23.10;1.00;;;;;;4937414;29;19966;-61
2023/09/15 11:14:15;;;;;;;;;;;23.10;1.00;;;;;;4937215;29;20354;-61
2023/09/15 11:16:42;;;;;;;;;;;23.10;1.00;;;;;;4936831;29;19930;-61
2023/09/15 11:19:10;;;;;;;;;;;23.00;1.00;;;;;;4937180;29;19974;-61
2023/09/15 11:21:38;;;;;;;;;;;23.00;1.00;;;;;;4937289;29;19927;-60
2023/09/15 11:24:06;;;;;;;;;;;23.10;1.00;;;;;;4937172;29;19935;-59
2023/09/15 11:26:32;;;;;;;;;;;23.00;1.00;;;;;;4936820;29;19926;-60
2023/09/15 11:28:59;;;;;;;;;;;23.00;1.00;;;;;;4937194;29;19931;-61
2023/09/15 11:31:26;;;;;;;;;;;23.10;1.00;;;;;;4937052;29;19930;-61
2023/09/15 11:33:54;;;;;;;;;;;23.00;1.00;;;;;;4937069;29;19931;-61
2023/09/15 11:36:21;;;;;;;;;;;23.10;1.00;;;;;;4937198;29;19927;-61
2023/09/15 11:38:48;;;;;;;;;;;23.10;1.00;;;;;;4936645;29;19927;-61
2023/09/15 11:41:16;;;;;;;;;;;23.10;1.00;;;;;;4936740;29;19958;-61
2023/09/15 11:43:43;;;;;;;;;;;23.10;1.00;;;;;;4937074;29;20383;-61
2023/09/15 11:46:13;;;;;;;;;;;23.10;1.00;;;;;;4936837;29;19982;-61
2023/09/15 11:48:41;;;;;;;;;;;23.10;1.00;;;;;;4936706;29;19931;-61
2023/09/15 11:51:09;;;;;;;;;;;23.10;1.00;;;;;;4936756;29;20465;-61
2023/09/15 11:53:39;;;;;;;;;;;23.10;1.00;;;;;;4936589;29;19942;-62
2023/09/15 11:56:06;;;;;;;;;;;23.00;1.00;;;;;;4936641;29;19931;-61
2023/09/15 11:58:33;;;;;;;;;;;23.10;1.00;;;;;;4936288;29;20030;-61
2023/09/15 12:01:01;;;;;;;;;;;23.10;1.00;;;;;;4936522;29;20026;-61
2023/09/15 12:03:32;;;;;;;;;;;23.10;1.00;;;;;;4936377;29;20458;-61
2023/09/15 12:06:00;;;;;;;;;;;23.10;1.00;;;;;;4936503;29;19927;-61
2023/09/15 12:08:27;;;;;;;;;;;23.10;1.00;;;;;;4936114;29;20311;-61
2023/09/15 12:10:55;;;;;;;;;;;23.10;1.00;;;;;;4936516;29;19949;-61
2023/09/15 12:13:37;;;;;;;;;;;23.00;1.00;;;;;;4936341;29;19930;-61
2023/09/15 12:16:04;;;;;;;;;;;23.10;1.00;;;;;;4936098;29;19930;-61
2023/09/15 12:18:37;;;;;;;;;;;23.00;1.00;;;;;;4935940;29;19934;-61
2023/09/15 12:21:11;;;;;;;;;;;23.00;1.00;;;;;;4936341;29;20593;-61
2023/09/15 12:23:38;;;;;;;;;;;23.10;1.00;;;;;;4936011;29;20298;-61
2023/09/15 12:26:11;;;;;;;;;;;23.10;1.00;;;;;;4936047;29;20342;-61
2023/09/15 12:28:41;;;;;;;;;;;23.10;1.00;;;;;;4935778;29;19927;-61
2023/09/15 12:31:07;;;;;;;;;;;23.10;1.00;;;;;;4936350;29;20302;-61
2023/09/15 12:33:35;;;;;;;;;;;23.00;1.00;;;;;;4935765;29;19986;-61
2023/09/15 12:36:04;;;;;;;;;;;23.10;1.00;;;;;;4935679;29;20026;-61
2023/09/15 12:38:31;;;;;;;;;;;23.10;1.00;;;;;;4935703;29;20033;-61
2023/09/15 12:40:58;;;;;;;;;;;23.00;1.00;;;;;;4935770;29;20014;-61
2023/09/15 12:43:25;;;;;;;;;;;23.00;1.00;;;;;;4935806;29;20302;-61
2023/09/15 12:45:53;;;;;;;;;;;23.00;1.00;;;;;;4935219;29;19927;-61
2023/09/15 12:48:20;;;;;;;;;;;23.10;1.00;;;;;;4935420;29;19982;-61
2023/09/15 12:50:47;;;;;;;;;;;23.00;1.00;;;;;;4935991;29;20361;-61
2023/09/15 12:53:14;;;;;;;;;;;23.00;1.00;;;;;;4934938;29;19926;-61
2023/09/15 12:55:41;;;;;;;;;;;23.00;1.00;;;;;;4935468;29;19962;-61
2023/09/15 12:58:08;;;;;;;;;;;23.10;1.00;;;;;;4935143;29;19927;-61
2023/09/15 13:00:34;;;;;;;;;;;23.00;1.00;;;;;;4935187;29;19935;-61
2023/09/15 13:03:02;;;;;;;;;;;23.10;1.00;;;;;;4935282;29;20168;-61
2023/09/15 13:05:29;;;;;;;;;;;23.00;1.00;;;;;;4935333;29;19927;-61
2023/09/15 13:07:56;;;;;;;;;;;23.00;1.00;;;;;;4935023;29;19942;-61
2023/09/15 13:10:23;;;;;;;;;;;23.10;1.00;;;;;;4935340;29;19926;-61
2023/09/15 13:12:50;;;;;;;;;;;23.00;1.00;;;;;;4935084;29;19930;-61
2023/09/15 13:15:21;;;;;;;;;;;23.00;1.00;;;;;;4935146;29;19930;-60
2023/09/15 13:17:49;;;;;;;;;;;23.00;1.00;;;;;;4934959;29;20383;-61
2023/09/15 13:20:16;;;;;;;;;;;23.10;1.00;;;;;;4935176;29;20022;-61
2023/09/15 13:22:43;;;;;;;;;;;23.00;1.00;;;;;;4935075;29;20333;-61
2023/09/15 13:25:09;;;;;;;;;;;23.10;1.00;;;;;;4935241;29;19926;-61
2023/09/15 13:27:36;;;;;;;;;;;23.10;1.00;;;;;;4934673;29;20025;-61
2023/09/15 13:30:04;;;;;;;;;;;23.00;1.00;;;;;;4934993;29;19950;-61
2023/09/15 13:32:30;;;;;;;;;;;23.10;1.00;;;;;;4935142;29;19954;-61
2023/09/15 13:34:57;;;;;;;;;;;23.00;1.00;;;;;;4935086;29;19927;-61
2023/09/15 13:37:24;;;;;;;;;;;23.10;1.00;;;;;;4934591;29;19961;-61
2023/09/15 13:39:51;;;;;;;;;;;23.10;1.00;;;;;;4934812;29;19994;-61
2023/09/15 13:42:28;;;;;;;;;;;23.10;1.00;;;;;;4935172;29;19937;-61
2023/09/15 13:44:54;;;;;;;;;;;23.10;1.00;;;;;;4934848;29;20414;-61
2023/09/15 13:47:21;;;;;;;;;;;23.10;1.00;;;;;;4933457;29;20386;-61
2023/09/15 13:49:48;;;;;;;;;;;23.10;1.00;;;;;;4933409;29;20029;-58
2023/09/15 13:52:15;;;;;;;;;;;23.10;1.00;;;;;;4934618;29;20025;-61
2023/09/15 13:54:42;;;;;;;;;;;23.10;1.00;;;;;;4934414;29;19931;-61
2023/09/15 13:57:10;;;;;;;;;;;23.10;1.00;;;;;;4933821;29;20013;-61
2023/09/15 13:59:53;;;;;;;;;;;23.10;1.00;;;;;;4933862;29;19930;-61
2023/09/15 14:02:19;;;;;;;;;;;23.10;1.00;;;;;;4934689;29;20409;-61
2023/09/15 14:04:50;;;;;;;;;;;23.00;1.00;;;;;;4935225;29;20017;-61
2023/09/15 14:07:16;;;;;;;;;;;23.00;1.00;;;;;;4938248;29;20021;-61
2023/09/15 14:09:43;;;;;;;;;;;23.00;1.00;;;;;;4938524;29;19943;-61
2023/09/15 14:12:11;;;;;;;;;;;23.00;1.00;;;;;;4938636;29;20101;-61
2023/09/15 14:14:37;;;;;;;;;;;23.00;1.00;;;;;;4938493;29;19931;-61
2023/09/15 14:17:06;;;;;;;;;;;23.00;1.00;;;;;;4938063;29;20391;-61
2023/09/15 14:19:34;;;;;;;;;;;23.00;1.00;;;;;;4938257;29;19927;-61
2023/09/15 14:22:01;;;;;;;;;;;23.00;1.00;;;;;;4938397;29;19981;-61
2023/09/15 14:24:30;;;;;;;;;;;23.00;1.00;;;;;;4938427;29;19934;-61
2023/09/15 14:26:57;;;;;;;;;;;23.00;1.00;;;;;;4937857;29;20310;-61
2023/09/15 14:29:23;;;;;;;;;;;23.00;1.00;;;;;;4938304;29;20446;-59
2023/09/15 14:31:50;;;;;;;;;;;23.00;1.00;;;;;;4938131;29;19926;-61
2023/09/15 14:34:18;;;;;;;;;;;23.00;1.00;;;;;;4938023;29;20022;-61